Time;durP1;ratioP1;P1;durP2;ratioP2;P2;SDS_P1;SDS_P2;PMS_P1;PMS_P2;Temp;Humidity;BMP_temperature;BMP_pressure;BME280_temperature;BME280_humidity;BME280_pressure;Samples;Min_cycle;Max_cycle;Signal;HPM_P1;HPM_P2
2021/03/11 00:00:39;;;;;;;14.53;10.70;;;8.30;99.90;;;;;;5000514;28;20975;-74
2021/03/11 00:03:06;;;;;;;15.43;10.13;;;8.30;99.90;;;;;;5003460;28;20463;-74
2021/03/11 00:05:32;;;;;;;14.93;11.03;;;8.30;99.90;;;;;;5001193;28;20843;-74
2021/03/11 00:07:58;;;;;;;18.10;11.20;;;8.30;99.90;;;;;;5001214;28;20431;-74
2021/03/11 00:10:24;;;;;;;17.63;11.33;;;8.30;99.90;;;;;;5002189;28;20506;-75
2021/03/11 00:12:50;;;;;;;21.13;11.37;;;8.40;99.90;;;;;;4999908;28;20594;-74
2021/03/11 00:15:17;;;;;;;24.80;12.00;;;8.40;99.90;;;;;;5003272;28;20237;-74
2021/03/11 00:17:43;;;;;;;17.03;11.13;;;8.30;99.90;;;;;;5000546;28;20189;-74
2021/03/11 00:20:11;;;;;;;17.50;12.50;;;8.40;99.90;;;;;;5003633;28;20949;-74
2021/03/11 00:22:37;;;;;;;19.27;12.50;;;8.30;99.90;;;;;;4999544;28;20202;-74
2021/03/11 00:25:12;;;;;;;14.00;10.07;;;8.40;99.90;;;;;;5000340;28;20495;-73
2021/03/11 00:27:38;;;;;;;16.27;10.17;;;8.40;99.90;;;;;;5002439;28;20658;-74
2021/03/11 00:30:05;;;;;;;16.53;10.40;;;8.40;99.90;;;;;;5000800;28;20506;-74
2021/03/11 00:32:31;;;;;;;17.73;10.93;;;8.40;99.90;;;;;;5002554;28;20908;-74
2021/03/11 00:34:56;;;;;;;15.70;10.40;;;8.40;99.90;;;;;;5001658;28;20441;-74
2021/03/11 00:37:22;;;;;;;15.50;11.43;;;8.40;99.90;;;;;;5001267;28;20215;-75
2021/03/11 00:39:47;;;;;;;17.60;10.10;;;8.40;99.90;;;;;;5002694;28;20735;-74
2021/03/11 00:42:13;;;;;;;16.60;10.23;;;8.40;99.90;;;;;;4999910;28;20185;-74
2021/03/11 00:44:38;;;;;;;19.50;11.53;;;8.40;99.90;;;;;;5003013;28;20188;-74
2021/03/11 00:47:05;;;;;;;11.53;9.20;;;8.40;99.90;;;;;;5000481;28;20181;-74
2021/03/11 00:49:31;;;;;;;15.00;9.67;;;8.40;99.90;;;;;;5002157;28;20207;-75
2021/03/11 00:51:56;;;;;;;15.30;10.53;;;8.40;99.90;;;;;;5001401;28;20506;-75
2021/03/11 00:54:22;;;;;;;14.97;9.73;;;8.40;99.90;;;;;;5000180;28;20832;-74
2021/03/11 00:56:47;;;;;;;14.33;10.20;;;8.40;99.90;;;;;;5002891;28;20198;-74
2021/03/11 00:59:13;;;;;;;16.50;9.80;;;8.40;99.90;;;;;;4999498;28;20205;-74
2021/03/11 01:01:38;;;;;;;12.57;9.37;;;8.40;99.90;;;;;;5003235;28;20204;-75
2021/03/11 01:04:05;;;;;;;12.70;9.67;;;8.40;99.90;;;;;;5000010;28;20271;-75
2021/03/11 01:06:30;;;;;;;16.23;9.50;;;8.40;99.90;;;;;;5001878;28;20184;-75
2021/03/11 01:08:56;;;;;;;16.70;9.93;;;8.30;99.90;;;;;;5001222;28;20440;-73
2021/03/11 01:11:21;;;;;;;15.17;10.23;;;8.40;99.90;;;;;;5000491;28;20188;-74
2021/03/11 01:13:47;;;;;;;14.27;10.50;;;8.40;99.90;;;;;;5002243;28;20538;-74
2021/03/11 01:16:13;;;;;;;20.27;9.83;;;8.40;99.90;;;;;;4999386;28;20215;-74
2021/03/11 01:18:38;;;;;;;17.83;10.07;;;8.40;99.90;;;;;;5002959;28;20276;-74
2021/03/11 01:21:04;;;;;;;18.40;9.50;;;8.40;99.90;;;;;;5000110;28;20236;-74
2021/03/11 01:23:29;;;;;;;15.40;10.00;;;8.40;99.90;;;;;;5001493;28;20214;-74
2021/03/11 01:25:55;;;;;;;13.77;10.23;;;8.40;99.90;;;;;;5001114;28;20646;-74
2021/03/11 01:28:20;;;;;;;14.20;10.47;;;8.40;99.90;;;;;;4999074;28;20208;-75
2021/03/11 01:30:46;;;;;;;16.93;10.73;;;8.50;99.90;;;;;;5002318;28;20254;-75
2021/03/11 01:33:11;;;;;;;16.87;9.70;;;8.50;99.90;;;;;;5000220;28;20601;-74
2021/03/11 01:35:37;;;;;;;17.17;10.37;;;8.40;99.90;;;;;;5005433;28;20218;-74
2021/03/11 01:38:03;;;;;;;13.20;9.10;;;8.40;99.90;;;;;;5003990;28;20578;-75
2021/03/11 01:40:28;;;;;;;12.70;8.50;;;8.40;99.90;;;;;;5005475;28;20211;-74
2021/03/11 01:42:54;;;;;;;13.67;8.83;;;8.40;99.90;;;;;;5004888;28;20219;-74
2021/03/11 01:45:20;;;;;;;12.57;7.70;;;8.40;99.90;;;;;;5004255;28;20186;-74
2021/03/11 01:47:46;;;;;;;11.80;7.40;;;8.30;99.90;;;;;;5006297;28;20185;-75
2021/03/11 01:50:12;;;;;;;11.90;6.40;;;8.40;99.90;;;;;;5003244;28;20809;-75
2021/03/11 01:52:39;;;;;;;11.40;8.20;;;8.40;99.90;;;;;;5006137;28;20194;-75
2021/03/11 01:55:06;;;;;;;11.00;7.67;;;8.30;99.90;;;;;;5003983;28;20802;-75
2021/03/11 01:57:32;;;;;;;12.27;6.90;;;8.40;99.90;;;;;;5005355;28;20511;-74
2021/03/11 01:59:58;;;;;;;13.33;7.50;;;8.40;99.90;;;;;;5004263;28;20444;-74
2021/03/11 02:02:24;;;;;;;11.70;7.57;;;8.40;99.90;;;;;;5004083;28;20483;-73
2021/03/11 02:04:50;;;;;;;9.97;6.33;;;8.50;99.90;;;;;;5005586;28;20423;-74
2021/03/11 02:07:16;;;;;;;13.60;7.20;;;8.50;99.90;;;;;;5002984;28;20484;-74
2021/03/11 02:09:41;;;;;;;11.30;6.60;;;8.40;99.90;;;;;;5005831;28;20734;-75
2021/03/11 02:12:25;;;;;;;12.17;7.03;;;8.40;99.90;;;;;;5003214;28;20192;-74
2021/03/11 02:15:10;;;;;;;9.73;6.53;;;8.40;99.90;;;;;;5006637;28;20210;-74
2021/03/11 02:17:45;;;;;;;11.30;7.60;;;8.40;99.90;;;;;;5004181;28;20522;-74
2021/03/11 02:20:36;;;;;;;10.13;5.73;;;8.40;99.90;;;;;;5002485;28;20472;-75
2021/03/11 02:23:43;;;;;;;11.87;6.87;;;8.40;99.90;;;;;;5003784;28;20984;-75
2021/03/11 02:26:39;;;;;;;13.30;5.83;;;8.40;99.90;;;;;;5006497;28;20421;-74
2021/03/11 02:29:11;;;;;;;9.73;6.03;;;8.40;99.90;;;;;;5006560;28;20437;-74
2021/03/11 02:31:39;;;;;;;8.97;6.80;;;8.40;99.90;;;;;;5005161;28;20476;-75
2021/03/11 02:34:19;;;;;;;6.73;5.97;;;8.40;99.90;;;;;;5003186;28;20473;-73
2021/03/11 02:36:49;;;;;;;9.10;6.43;;;8.40;99.90;;;;;;5006289;28;20426;-75
2021/03/11 02:39:16;;;;;;;7.90;6.17;;;8.40;99.90;;;;;;5002229;28;20499;-74
2021/03/11 02:41:43;;;;;;;10.43;6.30;;;8.40;99.90;;;;;;5005319;28;20429;-74
2021/03/11 02:44:10;;;;;;;9.20;5.40;;;8.40;99.90;;;;;;5001787;28;20475;-73
2021/03/11 02:46:38;;;;;;;8.93;5.63;;;8.40;99.90;;;;;;5004572;28;20434;-74
2021/03/11 02:49:04;;;;;;;7.50;5.30;;;8.40;99.90;;;;;;5003197;28;20539;-75
2021/03/11 02:51:30;;;;;;;9.33;6.50;;;8.40;99.90;;;;;;5003495;28;20989;-74
2021/03/11 02:53:56;;;;;;;9.50;5.40;;;8.40;99.90;;;;;;5004066;28;20609;-74
2021/03/11 02:56:23;;;;;;;9.93;5.80;;;8.40;99.90;;;;;;5002294;28;20456;-74
2021/03/11 02:58:50;;;;;;;9.73;5.90;;;8.40;99.90;;;;;;5004913;28;20459;-75
2021/03/11 03:01:18;;;;;;;12.27;6.23;;;8.40;99.90;;;;;;5001599;28;20506;-74
2021/03/11 03:03:44;;;;;;;13.40;7.40;;;8.40;99.90;;;;;;5005025;28;20466;-74
2021/03/11 03:06:11;;;;;;;10.70;6.23;;;8.40;99.90;;;;;;5001913;28;20458;-74
2021/03/11 03:08:39;;;;;;;8.10;5.90;;;8.40;99.90;;;;;;5004123;28;20563;-75
2021/03/11 03:11:05;;;;;;;12.27;5.90;;;8.50;99.90;;;;;;5002531;28;20433;-74
2021/03/11 03:13:32;;;;;;;15.73;7.13;;;8.40;99.90;;;;;;5003227;28;20516;-75
2021/03/11 03:15:58;;;;;;;12.20;6.03;;;8.50;99.90;;;;;;5003739;28;20200;-74
2021/03/11 03:18:27;;;;;;;12.53;6.63;;;8.40;99.90;;;;;;5002204;28;20545;-74
2021/03/11 03:20:53;;;;;;;8.93;5.50;;;8.40;99.90;;;;;;5004243;28;20519;-74
2021/03/11 03:23:21;;;;;;;7.13;5.27;;;8.40;99.90;;;;;;5001435;28;20474;-75
2021/03/11 03:25:47;;;;;;;7.07;4.60;;;8.40;99.90;;;;;;5004768;28;20559;-75
2021/03/11 03:28:13;;;;;;;8.60;5.37;;;8.40;99.90;;;;;;5001392;28;20913;-74
2021/03/11 03:30:39;;;;;;;24.73;13.20;;;8.40;99.90;;;;;;5003949;28;20534;-74
2021/03/11 03:33:05;;;;;;;49.80;22.80;;;8.30;99.90;;;;;;5002345;28;20274;-75
2021/03/11 03:35:30;;;;;;;46.33;20.07;;;8.30;99.90;;;;;;5003142;28;20528;-74
2021/03/11 03:37:56;;;;;;;31.93;15.90;;;8.20;99.90;;;;;;5003447;28;20280;-74
2021/03/11 03:40:23;;;;;;;31.00;15.50;;;8.20;99.90;;;;;;5001400;28;20267;-74
2021/03/11 03:42:58;;;;;;;24.63;12.67;;;8.20;99.90;;;;;;5003884;28;20289;-74
2021/03/11 03:45:27;;;;;;;28.33;12.03;;;8.10;99.90;;;;;;5004978;28;20787;-74
2021/03/11 03:47:56;;;;;;;23.70;12.10;;;8.10;99.90;;;;;;5001744;28;20431;-74
2021/03/11 03:50:23;;;;;;;18.43;10.67;;;8.10;99.90;;;;;;5003245;28;20438;-74
2021/03/11 03:52:50;;;;;;;17.33;9.57;;;8.00;99.90;;;;;;5000935;28;20963;-75
2021/03/11 03:55:17;;;;;;;20.17;9.67;;;7.90;99.90;;;;;;5003661;28;20429;-75
2021/03/11 03:57:49;;;;;;;18.73;9.43;;;7.90;99.90;;;;;;5000456;28;20791;-75
2021/03/11 04:00:16;;;;;;;15.43;9.10;;;7.90;99.90;;;;;;5003953;28;20452;-75
2021/03/11 04:02:43;;;;;;;15.40;8.27;;;7.90;99.90;;;;;;5000383;28;20871;-75
2021/03/11 04:05:10;;;;;;;17.10;9.33;;;7.80;99.90;;;;;;5000499;28;20425;-75
2021/03/11 04:07:36;;;;;;;19.43;9.13;;;7.80;99.90;;;;;;5003006;28;20466;-75
2021/03/11 04:10:07;;;;;;;12.20;8.03;;;7.90;99.90;;;;;;5002098;28;20448;-74
2021/03/11 04:12:34;;;;;;;14.93;8.10;;;7.90;99.90;;;;;;5003042;28;20421;-75
2021/03/11 04:15:01;;;;;;;10.37;6.20;;;7.90;99.90;;;;;;5002428;28;20468;-75
2021/03/11 04:17:28;;;;;;;8.57;5.90;;;7.90;99.90;;;;;;5000953;28;20430;-74
2021/03/11 04:19:56;;;;;;;8.00;5.20;;;8.00;99.90;;;;;;5002684;28;20448;-75
2021/03/11 04:22:21;;;;;;;9.20;5.13;;;8.10;99.90;;;;;;5000721;28;20907;-75
2021/03/11 04:24:48;;;;;;;6.77;5.10;;;8.10;99.90;;;;;;5003579;28;20507;-75
2021/03/11 04:27:14;;;;;;;12.53;4.40;;;8.10;99.90;;;;;;5003711;28;20188;-74
2021/03/11 04:29:40;;;;;;;9.03;4.13;;;8.20;99.90;;;;;;5000320;28;20502;-74
2021/03/11 04:32:07;;;;;;;6.10;3.63;;;8.30;99.90;;;;;;5001199;28;20190;-74
2021/03/11 04:34:33;;;;;;;4.73;3.47;;;8.40;99.90;;;;;;5001425;28;20647;-74
2021/03/11 04:37:00;;;;;;;6.60;3.40;;;8.50;99.90;;;;;;5002043;28;20803;-74
2021/03/11 04:39:26;;;;;;;4.93;3.20;;;8.70;99.90;;;;;;5000769;28;20511;-75
2021/03/11 04:41:52;;;;;;;6.13;3.33;;;8.80;99.90;;;;;;5000873;28;20418;-75
2021/03/11 04:44:22;;;;;;;3.13;2.83;;;9.10;99.90;;;;;;5002950;28;20969;-74
2021/03/11 04:46:48;;;;;;;11.83;3.80;;;9.10;99.90;;;;;;5000002;28;20435;-75
2021/03/11 04:49:14;;;;;;;6.87;3.37;;;9.20;99.90;;;;;;5003563;28;20445;-74
2021/03/11 04:51:39;;;;;;;4.97;3.20;;;9.20;99.90;;;;;;4998530;28;20427;-75
2021/03/11 04:54:06;;;;;;;3.53;2.77;;;9.20;99.90;;;;;;5002261;28;20445;-74
2021/03/11 04:56:33;;;;;;;5.23;3.67;;;9.30;99.90;;;;;;5001310;28;20202;-75
2021/03/11 04:58:59;;;;;;;10.70;4.10;;;9.30;99.90;;;;;;5001288;28;20498;-74
2021/03/11 05:01:32;;;;;;;10.20;2.90;;;9.30;99.90;;;;;;5002038;28;20425;-74
2021/03/11 05:04:01;;;;;;;2.50;2.30;;;9.30;99.90;;;;;;5000954;28;20210;-74
2021/03/11 05:06:26;;;;;;;4.40;3.23;;;9.40;99.90;;;;;;5001632;28;20424;-74
2021/03/11 05:08:52;;;;;;;3.60;3.30;;;9.50;99.90;;;;;;5000019;28;20496;-74
2021/03/11 05:11:17;;;;;;;6.43;3.40;;;9.50;99.90;;;;;;5003045;28;20615;-75
2021/03/11 05:13:43;;;;;;;3.73;3.17;;;9.50;99.90;;;;;;4999318;28;20200;-75
2021/03/11 05:16:09;;;;;;;5.20;3.40;;;9.60;99.90;;;;;;5002489;28;20188;-75
2021/03/11 05:18:34;;;;;;;5.63;3.00;;;9.60;99.90;;;;;;4999602;28;20725;-74
2021/03/11 05:21:01;;;;;;;3.20;2.93;;;9.60;99.90;;;;;;5001377;28;20192;-74
2021/03/11 05:23:26;;;;;;;4.17;3.20;;;9.60;99.90;;;;;;5001169;28;20197;-74
2021/03/11 05:25:53;;;;;;;4.87;3.07;;;9.60;99.90;;;;;;4998924;28;20425;-74
2021/03/11 05:28:20;;;;;;;2.87;2.57;;;9.60;99.90;;;;;;5002558;28;20198;-74
2021/03/11 05:30:45;;;;;;;4.07;2.90;;;9.60;99.90;;;;;;4999401;28;21104;-74
2021/03/11 05:33:11;;;;;;;3.10;2.80;;;9.60;99.90;;;;;;5002575;28;20419;-74
2021/03/11 05:35:37;;;;;;;3.73;2.63;;;9.60;99.90;;;;;;4998499;28;20196;-74
2021/03/11 05:38:03;;;;;;;4.73;3.50;;;9.60;99.90;;;;;;5001491;28;20612;-74
2021/03/11 05:40:29;;;;;;;3.00;2.80;;;9.60;99.90;;;;;;5000804;28;20206;-75
2021/03/11 05:42:58;;;;;;;3.87;3.10;;;9.60;99.90;;;;;;4999463;28;20501;-75
2021/03/11 05:45:25;;;;;;;5.03;3.07;;;9.50;99.90;;;;;;5000052;28;20798;-74
2021/03/11 05:47:52;;;;;;;6.83;2.67;;;9.50;99.90;;;;;;5002275;28;20436;-71
2021/03/11 05:50:17;;;;;;;5.50;3.17;;;9.60;99.90;;;;;;4997100;28;20981;-71
2021/03/11 05:52:44;;;;;;;3.43;3.13;;;9.60;99.90;;;;;;5005183;28;20426;-72
2021/03/11 05:55:10;;;;;;;3.40;2.53;;;9.60;99.90;;;;;;4999243;28;20187;-72
2021/03/11 05:57:44;;;;;;;4.60;3.03;;;9.60;99.90;;;;;;5001730;28;20552;-72
2021/03/11 06:00:13;;;;;;;3.70;2.90;;;9.60;99.90;;;;;;4999042;28;20799;-71
2021/03/11 06:02:40;;;;;;;2.73;2.50;;;9.70;99.90;;;;;;5001317;28;20471;-71
2021/03/11 06:05:06;;;;;;;4.63;3.00;;;9.70;99.90;;;;;;4999865;28;20457;-72
2021/03/11 06:07:32;;;;;;;3.40;2.93;;;9.70;99.90;;;;;;5000180;28;20957;-71
2021/03/11 06:10:03;;;;;;;3.57;2.67;;;9.80;99.90;;;;;;5001109;28;20470;-72
2021/03/11 06:12:30;;;;;;;4.87;2.50;;;9.80;99.90;;;;;;5000201;28;20503;-71
2021/03/11 06:15:31;;;;;;;3.40;2.50;;;9.80;99.90;;;;;;5001100;28;20436;-72
2021/03/11 06:17:58;;;;;;;3.50;2.10;;;9.70;99.90;;;;;;4999225;28;20430;-71
2021/03/11 06:20:24;;;;;;;2.90;2.57;;;9.70;99.90;;;;;;5003064;28;20471;-72
2021/03/11 06:22:50;;;;;;;3.60;2.33;;;9.70;99.90;;;;;;5005019;28;20884;-71
2021/03/11 06:25:16;;;;;;;2.60;2.40;;;9.70;99.90;;;;;;5001252;28;20426;-71
2021/03/11 06:27:42;;;;;;;2.57;2.37;;;9.70;99.90;;;;;;5005494;28;20208;-71
2021/03/11 06:30:27;;;;;;;3.47;2.30;;;9.80;99.90;;;;;;5002947;28;20482;-71
2021/03/11 06:32:54;;;;;;;2.63;2.40;;;9.80;99.90;;;;;;5004761;28;20194;-70
2021/03/11 06:35:20;;;;;;;2.83;2.40;;;9.80;99.90;;;;;;5004351;28;20429;-71
2021/03/11 06:37:48;;;;;;;4.97;2.70;;;9.80;99.90;;;;;;5018591;28;20928;-72
2021/03/11 06:40:17;;;;;;;4.00;2.93;;;9.90;99.90;;;;;;5011649;28;20457;-71
2021/03/11 06:42:43;;;;;;;3.53;2.60;;;10.00;99.90;;;;;;5013437;28;20565;-71
2021/03/11 06:45:22;;;;;;;4.93;2.50;;;10.00;99.90;;;;;;5016595;28;20521;-71
2021/03/11 06:47:51;;;;;;;8.03;2.53;;;10.10;99.90;;;;;;5009109;28;20181;-71
2021/03/11 06:50:20;;;;;;;2.87;2.20;;;10.10;99.90;;;;;;5012474;28;20440;-71
2021/03/11 06:53:03;;;;;;;3.10;2.70;;;10.10;99.90;;;;;;5008336;28;20523;-71
2021/03/11 06:55:29;;;;;;;4.47;2.30;;;10.20;99.90;;;;;;5007971;28;20919;-71
2021/03/11 06:57:55;;;;;;;2.60;2.40;;;10.20;99.90;;;;;;5005295;28;20421;-71
2021/03/11 07:00:23;;;;;;;5.10;2.40;;;10.30;99.90;;;;;;5004371;28;20826;-71
2021/03/11 07:02:53;;;;;;;3.10;1.80;;;10.30;99.90;;;;;;5001905;28;20308;-72
2021/03/11 07:05:20;;;;;;;6.53;2.30;;;10.30;99.90;;;;;;5004667;28;20574;-71
2021/03/11 07:07:47;;;;;;;3.50;2.33;;;10.40;99.90;;;;;;5001784;28;20421;-71
2021/03/11 07:10:26;;;;;;;2.90;2.10;;;10.40;99.90;;;;;;5005745;28;20460;-71
2021/03/11 07:12:54;;;;;;;3.23;2.27;;;10.40;99.90;;;;;;5016913;28;20454;-71
2021/03/11 07:15:21;;;;;;;2.20;2.00;;;10.50;99.90;;;;;;5014188;28;20467;-71
2021/03/11 07:17:47;;;;;;;4.80;2.40;;;10.50;99.90;;;;;;5018989;28;20432;-71
2021/03/11 07:20:18;;;;;;;2.90;2.03;;;10.60;99.90;;;;;;5017876;28;20505;-71
2021/03/11 07:23:09;;;;;;;2.80;1.80;;;10.60;99.90;;;;;;5018467;28;20423;-72
2021/03/11 07:25:40;;;;;;;3.70;2.17;;;10.60;99.90;;;;;;5010590;28;20428;-71
2021/03/11 07:28:20;;;;;;;5.97;1.73;;;10.70;99.90;;;;;;5018299;28;20417;-71
2021/03/11 07:30:54;;;;;;;6.00;1.53;;;10.70;99.90;;;;;;5011264;28;20478;-72
2021/03/11 07:33:25;;;;;;;2.00;1.77;;;10.70;99.90;;;;;;5014208;28;20436;-71
2021/03/11 07:35:55;;;;;;;1.70;1.43;;;10.80;99.90;;;;;;5016989;28;20443;-72
2021/03/11 07:38:22;;;;;;;2.60;2.07;;;10.80;99.90;;;;;;5016464;28;21001;-71
2021/03/11 07:40:50;;;;;;;2.00;1.50;;;10.80;99.90;;;;;;5016640;28;20491;-72
2021/03/11 07:43:17;;;;;;;3.73;1.83;;;10.90;99.90;;;;;;5013453;28;20456;-71
2021/03/11 07:45:42;;;;;;;6.40;1.87;;;11.00;99.90;;;;;;5017968;28;20440;-71
2021/03/11 07:48:12;;;;;;;1.67;1.57;;;11.00;99.90;;;;;;5013308;28;20439;-70
2021/03/11 07:50:39;;;;;;;1.53;1.40;;;11.10;99.90;;;;;;5015051;28;20558;-71
2021/03/11 07:53:06;;;;;;;1.47;1.37;;;11.10;99.90;;;;;;5013752;28;20439;-71
2021/03/11 07:55:32;;;;;;;1.73;1.63;;;11.20;99.90;;;;;;5010921;28;20991;-71
2021/03/11 07:58:02;;;;;;;8.73;1.80;;;11.30;99.90;;;;;;5019593;28;20426;-71
2021/03/11 08:00:29;;;;;;;2.60;1.40;;;11.40;99.90;;;;;;5010403;28;20604;-71
2021/03/11 08:03:10;;;;;;;2.00;1.80;;;11.40;99.90;;;;;;5003202;28;20495;-71
2021/03/11 08:05:36;;;;;;;1.60;1.50;;;11.50;99.90;;;;;;5002555;28;20424;-71
2021/03/11 08:08:18;;;;;;;2.40;2.20;;;11.50;99.90;;;;;;5006485;28;20428;-71
2021/03/11 08:10:54;;;;;;;4.70;1.70;;;11.60;99.90;;;;;;5017788;28;20979;-72
2021/03/11 08:13:36;;;;;;;2.40;1.67;;;11.70;99.90;;;;;;5010085;28;20432;-71
2021/03/11 08:16:24;;;;;;;3.63;1.57;;;11.80;99.90;;;;;;5015792;28;20439;-71
2021/03/11 08:18:51;;;;;;;4.10;1.73;;;12.00;99.90;;;;;;5016888;28;20455;-71
2021/03/11 08:21:23;;;;;;;2.40;1.47;;;12.10;99.90;;;;;;5017119;28;20437;-71
2021/03/11 08:23:49;;;;;;;2.07;1.33;;;12.30;99.90;;;;;;5016257;28;20503;-72
2021/03/11 08:26:37;;;;;;;14.30;1.90;;;12.40;99.90;;;;;;5012484;28;20860;-71
2021/03/11 08:29:22;;;;;;;4.10;1.90;;;12.50;99.90;;;;;;5011774;28;20202;-71
2021/03/11 08:31:49;;;;;;;3.17;1.50;;;12.50;99.90;;;;;;5016101;28;21164;-71
2021/03/11 08:34:33;;;;;;;2.50;1.30;;;12.40;99.90;;;;;;5006630;28;20920;-71
2021/03/11 08:37:21;;;;;;;4.73;1.40;;;12.40;99.90;;;;;;5009687;28;20440;-71
2021/03/11 08:39:48;;;;;;;4.57;1.67;;;12.50;99.90;;;;;;5015500;28;20461;-71
2021/03/11 08:42:45;;;;;;;2.43;1.37;;;12.60;99.90;;;;;;5013787;28;20525;-71
2021/03/11 08:45:12;;;;;;;4.93;1.50;;;12.60;99.90;;;;;;5003767;28;20421;-72
2021/03/11 08:48:10;;;;;;;2.87;1.40;;;12.70;99.90;;;;;;5002526;28;20891;-71
2021/03/11 08:50:36;;;;;;;3.73;1.40;;;12.70;99.90;;;;;;5001964;28;20832;-72
2021/03/11 08:53:02;;;;;;;1.30;1.03;;;12.80;99.90;;;;;;5001507;28;20521;-71
2021/03/11 08:55:31;;;;;;;1.07;0.97;;;12.90;99.90;;;;;;5004187;28;20210;-71
2021/03/11 08:57:58;;;;;;;1.47;1.37;;;13.00;99.90;;;;;;5014598;28;20209;-71
2021/03/11 09:01:02;;;;;;;1.50;1.40;;;13.20;99.90;;;;;;5015790;28;20429;-72
2021/03/11 09:03:42;;;;;;;4.10;1.23;;;13.30;99.90;;;;;;5012144;28;20922;-72
2021/03/11 09:06:09;;;;;;;3.50;1.10;;;13.20;99.90;;;;;;5014377;28;20792;-72
2021/03/11 09:08:37;;;;;;;2.57;1.00;;;13.20;99.90;;;;;;5011882;28;20504;-71
2021/03/11 09:11:10;;;;;;;3.00;1.13;;;13.30;99.90;;;;;;5017317;28;20433;-72
2021/03/11 09:13:38;;;;;;;2.00;1.43;;;13.40;99.90;;;;;;5015977;28;20803;-71
2021/03/11 09:16:04;;;;;;;2.30;1.30;;;13.50;99.90;;;;;;5009265;28;20503;-72
2021/03/11 09:18:29;;;;;;;5.20;1.57;;;13.60;99.90;;;;;;5015929;28;20540;-71
2021/03/11 09:20:55;;;;;;;1.30;1.20;;;13.60;99.90;;;;;;5000590;28;20181;-72
2021/03/11 09:23:32;;;;;;;1.80;1.07;;;13.70;99.90;;;;;;4999432;28;20221;-72
2021/03/11 09:25:58;;;;;;;2.50;1.10;;;13.60;99.90;;;;;;5002067;28;20479;-72
2021/03/11 09:28:24;;;;;;;1.53;1.37;;;13.70;99.90;;;;;;5014259;28;20922;-72
2021/03/11 09:30:49;;;;;;;1.00;1.00;;;13.80;99.90;;;;;;5018124;28;20185;-72
2021/03/11 09:33:22;;;;;;;2.17;1.40;;;13.70;99.90;;;;;;5015018;28;20187;-71
2021/03/11 09:35:49;;;;;;;1.73;1.17;;;13.70;99.90;;;;;;5017607;28;20212;-72
2021/03/11 09:38:25;;;;;;;1.00;0.90;;;13.60;99.90;;;;;;5009764;28;20426;-72
2021/03/11 09:40:58;;;;;;;0.93;0.70;;;13.50;99.90;;;;;;5015121;28;20915;-72
2021/03/11 09:43:32;;;;;;;1.10;1.00;;;13.40;99.90;;;;;;4999812;28;20458;-72
2021/03/11 09:46:14;;;;;;;1.33;1.23;;;13.50;99.90;;;;;;5003866;28;20942;-71
2021/03/11 09:48:39;;;;;;;1.03;1.00;;;13.60;99.90;;;;;;5013368;28;20461;-71
2021/03/11 09:51:09;;;;;;;4.50;0.97;;;13.60;99.90;;;;;;5015248;28;20433;-72
2021/03/11 09:53:38;;;;;;;1.10;0.87;;;13.80;99.90;;;;;;5009939;28;20265;-71
2021/03/11 09:56:06;;;;;;;1.80;1.17;;;13.80;99.90;;;;;;5020493;28;20432;-71
2021/03/11 09:58:32;;;;;;;2.17;0.97;;;13.90;99.90;;;;;;5019617;28;20464;-72
2021/03/11 10:00:58;;;;;;;1.77;0.90;;;13.80;99.90;;;;;;5015173;28;20424;-71
2021/03/11 10:03:30;;;;;;;1.87;0.83;;;13.80;99.90;;;;;;5017002;28;20515;-72
2021/03/11 10:05:59;;;;;;;0.83;0.67;;;13.70;99.90;;;;;;5016806;28;20206;-72
2021/03/11 10:08:34;;;;;;;3.93;0.90;;;13.70;99.90;;;;;;5015153;28;20448;-72
2021/03/11 10:11:10;;;;;;;1.10;1.00;;;13.80;99.90;;;;;;5013958;28;20586;-72
2021/03/11 10:13:38;;;;;;;1.90;1.03;;;13.90;99.90;;;;;;5014071;28;20429;-71
2021/03/11 10:16:05;;;;;;;1.43;1.10;;;14.30;99.90;;;;;;5015968;28;20434;-72
2021/03/11 10:18:32;;;;;;;0.90;0.80;;;14.70;99.90;;;;;;5017727;28;20520;-71
2021/03/11 10:21:06;;;;;;;1.80;1.23;;;15.20;99.90;;;;;;5017617;28;20813;-72
2021/03/11 10:23:33;;;;;;;1.10;0.80;;;15.20;99.90;;;;;;5003932;28;20473;-71
2021/03/11 10:26:18;;;;;;;1.67;0.80;;;15.10;99.90;;;;;;5004737;28;20418;-71
2021/03/11 10:28:46;;;;;;;1.03;0.93;;;14.90;99.90;;;;;;5006004;28;20441;-71
2021/03/11 10:31:13;;;;;;;2.33;0.60;;;14.60;99.90;;;;;;5002620;28;20446;-71
2021/03/11 10:33:40;;;;;;;1.60;0.80;;;14.50;99.90;;;;;;5014201;28;21606;-71
2021/03/11 10:36:18;;;;;;;0.70;0.60;;;14.40;99.90;;;;;;5019725;28;20566;-71
2021/03/11 10:39:03;;;;;;;0.90;0.90;;;14.30;99.90;;;;;;5012049;28;20468;-71
2021/03/11 10:41:29;;;;;;;1.47;0.70;;;14.30;99.90;;;;;;5003395;28;20496;-72
2021/03/11 10:44:14;;;;;;;1.20;0.80;;;14.30;99.90;;;;;;5004318;28;20465;-71
2021/03/11 10:46:42;;;;;;;1.00;0.77;;;14.10;99.90;;;;;;5008849;28;20422;-71
2021/03/11 10:49:09;;;;;;;1.13;0.80;;;14.20;99.90;;;;;;5002722;28;20444;-72
2021/03/11 10:51:35;;;;;;;0.57;0.57;;;14.20;99.90;;;;;;5002808;28;20415;-72
2021/03/11 10:54:01;;;;;;;0.90;0.90;;;14.10;99.90;;;;;;5009206;28;20811;-72
2021/03/11 10:56:27;;;;;;;0.60;0.60;;;14.10;99.90;;;;;;5018226;28;20197;-71
2021/03/11 10:59:01;;;;;;;1.70;0.80;;;14.10;99.90;;;;;;5021367;28;20446;-72
2021/03/11 11:01:28;;;;;;;2.43;0.80;;;14.10;99.90;;;;;;5017850;28;20426;-72
2021/03/11 11:03:55;;;;;;;1.10;0.80;;;14.00;99.90;;;;;;5018387;28;20817;-71
2021/03/11 11:06:22;;;;;;;0.80;0.80;;;14.00;99.90;;;;;;5016143;28;20780;-71
2021/03/11 11:08:48;;;;;;;1.17;0.90;;;13.90;99.90;;;;;;5019743;28;20537;-71
2021/03/11 11:11:14;;;;;;;1.20;1.10;;;13.80;99.90;;;;;;5018358;28;20505;-71
2021/03/11 11:13:40;;;;;;;0.77;0.67;;;13.60;99.90;;;;;;5010488;28;20186;-72
2021/03/11 11:16:06;;;;;;;0.90;0.90;;;13.50;99.90;;;;;;5014099;28;20882;-70
2021/03/11 11:18:32;;;;;;;0.93;0.90;;;13.40;99.90;;;;;;5011713;28;20203;-70
2021/03/11 11:20:59;;;;;;;0.90;0.90;;;13.30;99.90;;;;;;5020371;28;20610;-71
2021/03/11 11:23:24;;;;;;;4.80;1.50;;;13.20;99.90;;;;;;5004797;28;20462;-71
2021/03/11 11:25:50;;;;;;;0.73;0.73;;;13.10;99.90;;;;;;5004603;28;20429;-71
2021/03/11 11:28:15;;;;;;;7.13;0.70;;;13.00;99.90;;;;;;5001389;28;20179;-71
2021/03/11 11:30:41;;;;;;;1.20;0.50;;;13.00;99.90;;;;;;5004219;28;20240;-72
2021/03/11 11:33:07;;;;;;;3.27;0.60;;;12.90;99.90;;;;;;5001810;28;20281;-71
2021/03/11 11:35:33;;;;;;;0.87;0.53;;;12.90;99.90;;;;;;5002775;28;20186;-71
2021/03/11 11:37:59;;;;;;;0.60;0.60;;;12.70;99.90;;;;;;5002661;28;20736;-71
2021/03/11 11:40:25;;;;;;;1.50;0.97;;;12.70;99.90;;;;;;5004388;28;20210;-71
2021/03/11 11:42:50;;;;;;;0.50;0.50;;;12.70;99.90;;;;;;5004038;28;20201;-71
2021/03/11 11:45:16;;;;;;;1.33;0.60;;;12.70;99.90;;;;;;5004224;28;20456;-70
2021/03/11 11:47:42;;;;;;;1.67;0.70;;;12.60;99.90;;;;;;5001145;28;20186;-71
2021/03/11 11:50:09;;;;;;;1.30;0.60;;;12.60;99.90;;;;;;5002948;28;20446;-71
2021/03/11 11:52:36;;;;;;;0.97;0.97;;;12.50;99.90;;;;;;5000087;28;20418;-71
2021/03/11 11:55:06;;;;;;;0.50;0.50;;;12.40;99.90;;;;;;5000654;28;20517;-71
2021/03/11 11:57:31;;;;;;;0.80;0.60;;;12.40;99.90;;;;;;5001774;28;20972;-71
2021/03/11 11:59:57;;;;;;;0.50;0.50;;;12.40;99.90;;;;;;5012909;28;20445;-70
2021/03/11 12:02:23;;;;;;;0.90;0.70;;;12.40;99.90;;;;;;5016589;28;20554;-71
2021/03/11 12:04:49;;;;;;;0.70;0.60;;;12.50;99.90;;;;;;5018192;28;20675;-70
2021/03/11 12:07:14;;;;;;;2.20;0.77;;;12.50;99.90;;;;;;5016162;28;20437;-71
2021/03/11 12:09:40;;;;;;;0.60;0.60;;;12.60;99.90;;;;;;5018278;28;20719;-71
2021/03/11 12:12:06;;;;;;;0.50;0.50;;;12.70;99.90;;;;;;5013764;28;20243;-71
2021/03/11 12:14:32;;;;;;;1.37;0.50;;;12.80;99.90;;;;;;5017070;28;20214;-71
2021/03/11 12:16:58;;;;;;;2.97;0.60;;;12.80;99.90;;;;;;5022234;28;20431;-71
2021/03/11 12:19:24;;;;;;;0.60;0.60;;;12.80;99.90;;;;;;5013703;28;20457;-71
2021/03/11 12:21:49;;;;;;;0.60;0.53;;;12.80;99.90;;;;;;5013669;28;20299;-71
2021/03/11 12:24:15;;;;;;;1.53;0.50;;;12.70;99.90;;;;;;5016236;28;20206;-71
2021/03/11 12:26:41;;;;;;;1.00;0.60;;;12.70;99.90;;;;;;5016355;28;20171;-71
2021/03/11 12:29:06;;;;;;;0.57;0.57;;;12.70;99.90;;;;;;5006824;28;20236;-71
2021/03/11 12:31:32;;;;;;;0.50;0.50;;;12.90;99.90;;;;;;5016389;28;20178;-71
2021/03/11 12:33:58;;;;;;;1.27;0.83;;;13.00;99.90;;;;;;5009466;28;20186;-71
2021/03/11 12:36:24;;;;;;;0.50;0.40;;;13.20;99.90;;;;;;5012977;28;20597;-71
2021/03/11 12:38:52;;;;;;;1.13;0.70;;;13.30;99.90;;;;;;5016485;28;20467;-71
2021/03/11 12:41:19;;;;;;;1.27;0.77;;;13.50;99.90;;;;;;5010296;28;20429;-71
2021/03/11 12:43:45;;;;;;;0.50;0.50;;;13.70;99.90;;;;;;5016956;28;20469;-71
2021/03/11 12:46:11;;;;;;;0.70;0.60;;;13.60;99.90;;;;;;5013149;28;20548;-71
2021/03/11 12:48:36;;;;;;;2.97;0.50;;;13.70;99.90;;;;;;5014949;28;20538;-72
2021/03/11 12:51:02;;;;;;;0.43;0.40;;;13.80;99.90;;;;;;5017957;28;20197;-71
2021/03/11 12:53:28;;;;;;;0.90;0.63;;;13.70;99.90;;;;;;5008859;28;20182;-71
2021/03/11 12:55:54;;;;;;;3.37;0.50;;;13.90;99.90;;;;;;5014164;28;20229;-72